createdAt,value
2023-01-22T00:01:19.835Z,93.50
2023-01-22T00:03:49.680Z,93.51
2023-01-22T00:06:17.580Z,93.51
2023-01-22T00:08:46.708Z,93.51
2023-01-22T00:11:15.581Z,93.52
2023-01-22T00:13:43.811Z,93.53
2023-01-22T00:16:16.215Z,93.54
2023-01-22T00:18:44.229Z,93.56
2023-01-22T00:21:13.194Z,93.56
2023-01-22T00:23:41.152Z,93.55
2023-01-22T00:26:15.359Z,93.55
2023-01-22T00:28:45.499Z,93.54
2023-01-22T00:31:15.319Z,93.54
2023-01-22T00:33:43.586Z,93.52
2023-01-22T00:36:14.798Z,93.51
2023-01-22T00:38:42.961Z,93.52
2023-01-22T00:41:12.446Z,93.58
2023-01-22T00:43:40.674Z,93.64
2023-01-22T00:46:11.978Z,93.66
2023-01-22T00:48:40.347Z,93.66
2023-01-22T00:51:09.160Z,93.65
2023-01-22T00:53:37.826Z,93.63
2023-01-22T00:56:06.121Z,93.58
2023-01-22T00:58:34.120Z,93.52
2023-01-22T01:01:02.490Z,93.45
2023-01-22T01:03:31.572Z,93.42
2023-01-22T01:06:05.843Z,93.40
2023-01-22T01:08:39.414Z,93.38
2023-01-22T01:11:11.656Z,93.37
2023-01-22T01:13:42.075Z,93.34
2023-01-22T01:16:19.754Z,93.32
2023-01-22T01:18:48.212Z,93.30
2023-01-22T01:21:17.144Z,93.28
2023-01-22T01:23:45.283Z,93.27
2023-01-22T01:26:16.226Z,93.27
2023-01-22T01:28:45.677Z,93.25
2023-01-22T01:31:15.999Z,93.28
2023-01-22T01:33:44.240Z,93.32
2023-01-22T01:36:21.209Z,93.25
2023-01-22T01:38:52.828Z,93.20
2023-01-22T01:41:25.978Z,93.19
2023-01-22T01:44:07.826Z,93.17
2023-01-22T01:46:40.533Z,93.15
2023-01-22T01:49:16.454Z,93.15
2023-01-22T01:51:44.210Z,93.14
2023-01-22T01:54:12.775Z,93.11
2023-01-22T01:56:46.462Z,93.10
2023-01-22T01:59:18.072Z,93.09
2023-01-22T02:02:05.138Z,93.07
2023-01-22T02:04:33.525Z,93.14
2023-01-22T02:07:02.339Z,93.16
2023-01-22T02:09:30.860Z,93.10
2023-01-22T02:11:58.807Z,93.07
2023-01-22T02:16:03.625Z,93.03
2023-01-22T02:18:31.483Z,92.98
2023-01-22T02:21:01.329Z,92.94
2023-01-22T02:23:31.471Z,92.87
2023-01-22T02:26:00.377Z,92.80
2023-01-22T02:28:28.146Z,92.79
2023-01-22T02:30:56.227Z,92.79
2023-01-22T02:33:24.014Z,92.75
2023-01-22T02:35:51.676Z,92.66
2023-01-22T02:38:19.398Z,92.63
2023-01-22T02:40:49.440Z,92.62
2023-01-22T02:43:19.469Z,92.57
2023-01-22T02:45:47.299Z,92.55
2023-01-22T02:48:16.115Z,92.52
2023-01-22T02:50:45.102Z,92.50
2023-01-22T02:53:13.988Z,92.52
2023-01-22T02:55:44.912Z,92.51
2023-01-22T02:58:13.104Z,92.49
2023-01-22T03:00:40.868Z,92.48
2023-01-22T03:03:09.315Z,92.45
2023-01-22T03:05:37.145Z,92.45
2023-01-22T03:08:05.352Z,92.45
2023-01-22T03:10:33.110Z,92.43
2023-01-22T03:13:19.746Z,92.42
2023-01-22T03:16:06.161Z,92.39
2023-01-22T03:18:52.557Z,92.40
2023-01-22T03:21:20.515Z,92.38
2023-01-22T03:23:50.914Z,92.37
2023-01-22T03:26:20.951Z,92.37
2023-01-22T03:28:49.717Z,92.34
2023-01-22T03:31:17.776Z,92.32
2023-01-22T03:33:46.315Z,92.31
2023-01-22T03:36:15.177Z,92.30
2023-01-22T03:38:47.079Z,92.28
2023-01-22T03:41:18.636Z,92.25
2023-01-22T03:43:47.482Z,92.24
2023-01-22T03:46:20.015Z,92.25
2023-01-22T03:48:51.575Z,92.23
2023-01-22T03:51:20.463Z,92.16
2023-01-22T03:53:48.754Z,92.07
2023-01-22T03:56:20.215Z,92.07
2023-01-22T03:58:49.608Z,92.08
2023-01-22T04:01:22.602Z,92.09
2023-01-22T04:03:52.162Z,92.09
2023-01-22T04:06:22.375Z,92.15
2023-01-22T04:08:51.385Z,92.22
2023-01-22T04:11:21.885Z,92.24
2023-01-22T04:13:50.028Z,92.23
2023-01-22T04:16:20.619Z,92.26
2023-01-22T04:19:09.992Z,92.26
2023-01-22T04:21:56.433Z,92.26
2023-01-22T04:24:24.088Z,92.28
2023-01-22T04:26:52.972Z,92.33
2023-01-22T04:29:21.189Z,92.40
2023-01-22T04:31:49.856Z,92.43
2023-01-22T04:34:20.596Z,92.46
2023-01-22T04:37:10.585Z,92.41
2023-01-22T04:39:38.302Z,92.38
2023-01-22T04:42:06.029Z,92.44
2023-01-22T04:44:33.962Z,92.49
2023-01-22T04:47:01.634Z,92.48
2023-01-22T04:49:29.416Z,92.50
2023-01-22T04:51:57.418Z,92.51
2023-01-22T04:54:26.222Z,92.52
2023-01-22T04:56:53.931Z,92.55
2023-01-22T04:59:21.699Z,92.54
2023-01-22T05:01:51.096Z,92.56
2023-01-22T05:04:21.710Z,92.57
2023-01-22T05:06:50.489Z,92.55
2023-01-22T05:09:18.583Z,92.59
2023-01-22T05:11:59.144Z,92.64
2023-01-22T05:14:27.909Z,92.66
2023-01-22T05:16:55.577Z,92.68
2023-01-22T05:19:23.343Z,92.71
2023-01-22T05:21:51.088Z,92.77
2023-01-22T05:24:19.228Z,92.81
2023-01-22T05:26:46.954Z,92.81
2023-01-22T05:29:35.017Z,92.78
2023-01-22T05:32:25.625Z,92.73
2023-01-22T05:34:56.225Z,92.73
2023-01-22T05:37:24.064Z,92.76
2023-01-22T05:39:52.323Z,92.79
2023-01-22T05:42:21.138Z,92.78
2023-01-22T05:44:50.673Z,92.82
2023-01-22T05:47:21.518Z,92.81
2023-01-22T05:50:13.012Z,92.82
2023-01-22T05:52:40.692Z,92.83
2023-01-22T05:55:09.388Z,92.80
2023-01-22T05:57:42.219Z,92.78
2023-01-22T06:00:11.794Z,92.81
2023-01-22T06:02:44.392Z,92.84
2023-01-22T06:05:12.560Z,92.87
2023-01-22T06:07:41.180Z,92.88
2023-01-22T06:10:09.255Z,92.88
2023-01-22T06:12:40.683Z,92.89
2023-01-22T06:15:09.292Z,92.86
2023-01-22T06:17:37.458Z,92.85
2023-01-22T06:20:05.965Z,92.85
2023-01-22T06:22:33.778Z,92.86
2023-01-22T06:25:03.926Z,92.83
2023-01-22T06:27:46.528Z,92.87
2023-01-22T06:30:14.311Z,92.88
2023-01-22T06:32:42.062Z,92.85
2023-01-22T06:35:11.176Z,92.85
2023-01-22T06:37:38.941Z,92.85
2023-01-22T06:40:07.334Z,92.85
2023-01-22T06:42:40.974Z,92.86
2023-01-22T06:45:09.535Z,92.85
2023-01-22T06:47:37.981Z,92.86
2023-01-22T06:50:06.025Z,92.86
2023-01-22T06:52:35.166Z,92.87
2023-01-22T06:55:03.690Z,92.90
2023-01-22T06:57:31.537Z,92.92
2023-01-22T06:59:59.433Z,92.95
2023-01-22T07:02:27.126Z,92.95
2023-01-22T07:04:54.895Z,92.98
2023-01-22T07:07:22.564Z,93.00
2023-01-22T07:09:50.249Z,93.01
2023-01-22T07:12:17.926Z,93.00
2023-01-22T07:14:45.594Z,93.02
2023-01-22T07:17:13.741Z,93.02
2023-01-22T07:19:41.505Z,93.02
2023-01-22T07:22:09.214Z,93.03
2023-01-22T07:24:36.880Z,93.01
2023-01-22T07:27:04.552Z,93.01
2023-01-22T07:29:32.294Z,93.01
2023-01-22T07:32:00.006Z,93.07
2023-01-22T07:34:27.683Z,93.10
2023-01-22T07:36:55.377Z,93.05
2023-01-22T07:39:23.115Z,93.00
2023-01-22T07:41:50.807Z,93.00
2023-01-22T07:44:18.807Z,93.00
2023-01-22T07:46:46.654Z,93.00
2023-01-22T07:49:14.552Z,93.01
2023-01-22T07:51:42.194Z,93.03
2023-01-22T07:54:09.859Z,93.05
2023-01-22T07:56:37.557Z,93.02
2023-01-22T07:59:06.039Z,93.01
2023-01-22T08:01:33.965Z,92.98
2023-01-22T08:04:01.873Z,92.98
2023-01-22T08:06:29.968Z,92.97
2023-01-22T08:08:59.541Z,92.96
2023-01-22T08:11:28.312Z,92.95
2023-01-22T08:13:56.032Z,92.95
2023-01-22T08:16:23.751Z,92.93
2023-01-22T08:18:51.723Z,92.92
2023-01-22T08:21:19.736Z,92.90
2023-01-22T08:23:49.279Z,92.90
2023-01-22T08:26:17.190Z,92.88
2023-01-22T08:28:44.925Z,92.86
2023-01-22T08:31:26.256Z,92.85
2023-01-22T08:33:55.164Z,92.83
2023-01-22T08:36:22.928Z,92.82
2023-01-22T08:38:50.693Z,92.81
2023-01-22T08:41:18.726Z,92.80
2023-01-22T08:43:46.514Z,92.78
2023-01-22T08:46:14.455Z,92.79
2023-01-22T08:48:44.206Z,92.77
2023-01-22T08:51:12.199Z,92.77
2023-01-22T08:53:39.931Z,92.75
2023-01-22T08:56:08.340Z,92.73
2023-01-22T08:58:35.984Z,92.69
2023-01-22T09:01:03.836Z,92.67
2023-01-22T09:03:32.285Z,92.64
2023-01-22T09:06:00.007Z,92.62
2023-01-22T09:08:27.837Z,92.59
2023-01-22T09:10:55.572Z,92.56
2023-01-22T09:13:23.210Z,92.54
2023-01-22T09:15:50.869Z,92.53
2023-01-22T09:18:18.706Z,92.52
2023-01-22T09:20:46.460Z,92.51
2023-01-22T09:23:15.647Z,92.50
2023-01-22T09:25:43.398Z,92.45
2023-01-22T09:28:12.353Z,92.44
2023-01-22T09:30:41.727Z,92.41
2023-01-22T09:33:09.928Z,92.40
2023-01-22T09:35:37.633Z,92.39
2023-01-22T09:38:05.823Z,92.37
2023-01-22T09:40:45.354Z,92.34
2023-01-22T09:43:25.829Z,92.32
2023-01-22T09:45:59.122Z,92.32
2023-01-22T09:48:35.394Z,92.29
2023-01-22T09:51:03.736Z,92.25
2023-01-22T09:53:31.937Z,92.22
2023-01-22T09:56:00.136Z,92.19
2023-01-22T09:58:27.945Z,92.19
2023-01-22T10:00:55.605Z,92.21
2023-01-22T10:03:33.146Z,92.19
2023-01-22T10:06:06.090Z,92.14
2023-01-22T10:08:51.901Z,92.08
2023-01-22T10:11:19.765Z,92.09
2023-01-22T10:13:51.462Z,92.07
2023-01-22T10:16:19.173Z,92.03
2023-01-22T10:19:26.216Z,92.03
2023-01-22T10:21:58.664Z,91.97
2023-01-22T10:24:26.526Z,91.98
2023-01-22T10:26:55.405Z,91.92
2023-01-22T10:29:37.194Z,91.89
2023-01-22T10:32:26.053Z,91.81
2023-01-22T10:35:17.142Z,91.71
2023-01-22T10:37:52.566Z,91.71
2023-01-22T10:40:43.350Z,91.73
2023-01-22T10:43:17.440Z,91.66
2023-01-22T10:45:55.285Z,91.61
2023-01-22T10:48:23.427Z,91.52
2023-01-22T10:51:14.474Z,91.44
2023-01-22T10:53:52.640Z,91.39
2023-01-22T10:56:32.349Z,91.36
2023-01-22T10:59:05.317Z,91.25
2023-01-22T11:01:36.471Z,91.18
2023-01-22T11:04:26.777Z,91.11
2023-01-22T11:07:00.045Z,91.17
2023-01-22T11:09:38.506Z,91.02
2023-01-22T11:12:20.080Z,90.86
2023-01-22T11:14:53.319Z,90.94
2023-01-22T11:17:37.839Z,90.97
2023-01-22T11:20:17.998Z,90.84
2023-01-22T11:23:13.430Z,90.75
2023-01-22T11:25:49.480Z,90.63
2023-01-22T11:28:23.546Z,90.60
2023-01-22T11:31:09.051Z,90.69
2023-01-22T11:33:55.754Z,90.61
2023-01-22T11:36:31.421Z,90.47
2023-01-22T11:39:24.049Z,90.38
2023-01-22T11:42:05.744Z,90.15
2023-01-22T11:45:07.749Z,90.18
2023-01-22T11:48:12.758Z,90.12
2023-01-22T11:50:55.982Z,90.04
2023-01-22T11:53:48.339Z,89.98
2023-01-22T11:56:40.878Z,90.02
2023-01-22T11:59:17.495Z,89.93
2023-01-22T12:01:51.060Z,90.06
2023-01-22T12:04:56.117Z,89.98
2023-01-22T12:07:46.236Z,89.95
2023-01-22T12:10:37.036Z,89.95
2023-01-22T12:13:11.817Z,89.83
2023-01-22T12:15:44.592Z,89.80
2023-01-22T12:18:40.733Z,89.83
2023-01-22T12:21:23.071Z,89.82
2023-01-22T12:23:56.846Z,89.75
2023-01-22T12:26:31.936Z,89.70
2023-01-22T12:29:08.538Z,89.65
2023-01-22T12:31:43.435Z,89.65
2023-01-22T12:34:20.825Z,89.68
2023-01-22T12:36:49.903Z,89.66
2023-01-22T12:39:34.032Z,89.68
2023-01-22T12:42:07.558Z,89.61
2023-01-22T12:44:41.178Z,89.55
2023-01-22T12:47:26.975Z,89.58
2023-01-22T12:49:54.672Z,89.59
2023-01-22T12:52:28.195Z,89.65
2023-01-22T12:54:56.700Z,89.65
2023-01-22T12:57:35.268Z,89.61
2023-01-22T13:00:24.530Z,89.60
2023-01-22T13:02:52.474Z,89.58
2023-01-22T13:05:26.216Z,89.59
2023-01-22T13:08:28.776Z,89.59
2023-01-22T13:10:58.985Z,89.61
2023-01-22T13:13:39.922Z,89.58
2023-01-22T13:16:30.851Z,89.61
2023-01-22T13:19:00.756Z,89.60
2023-01-22T13:21:33.839Z,89.61
2023-01-22T13:24:05.093Z,89.63
2023-01-22T13:26:35.269Z,89.63
2023-01-22T13:29:17.559Z,89.68
2023-01-22T13:31:53.611Z,89.70
2023-01-22T13:34:21.659Z,89.72
2023-01-22T13:36:50.993Z,89.66
2023-01-22T13:39:26.212Z,89.59
2023-01-22T13:41:57.260Z,89.64
2023-01-22T13:44:35.687Z,89.64
2023-01-22T13:47:04.153Z,89.57
2023-01-22T13:49:34.962Z,89.58
2023-01-22T13:52:06.668Z,89.56
2023-01-22T13:54:44.215Z,89.42
2023-01-22T13:57:16.970Z,89.28
2023-01-22T13:59:55.492Z,89.29
2023-01-22T14:02:28.440Z,89.26
2023-01-22T14:04:56.853Z,89.37
2023-01-22T14:07:36.894Z,89.29
2023-01-22T14:10:25.066Z,89.22
2023-01-22T14:13:04.871Z,89.17
2023-01-22T14:15:33.422Z,89.07
2023-01-22T14:18:08.579Z,89.07
2023-01-22T14:20:39.197Z,89.17
2023-01-22T14:23:07.577Z,89.16
2023-01-22T14:25:40.768Z,89.13
2023-01-22T14:28:08.648Z,88.97
2023-01-22T14:30:36.882Z,88.78
2023-01-22T14:33:05.256Z,88.74
2023-01-22T14:35:33.001Z,88.70
2023-01-22T14:38:01.153Z,88.70
2023-01-22T14:40:30.470Z,88.76
2023-01-22T14:43:01.002Z,88.75
2023-01-22T14:45:28.885Z,88.74
2023-01-22T14:47:56.929Z,88.72
2023-01-22T14:50:24.708Z,88.70
2023-01-22T14:52:52.837Z,88.69
2023-01-22T14:55:21.063Z,88.74
2023-01-22T14:57:49.107Z,88.65
2023-01-22T15:00:19.182Z,88.63
2023-01-22T15:02:47.891Z,88.65
2023-01-22T15:05:15.768Z,88.61
2023-01-22T15:07:43.548Z,88.59
2023-01-22T15:10:11.785Z,88.57
2023-01-22T15:12:39.622Z,88.56
2023-01-22T15:15:08.977Z,88.59
2023-01-22T15:17:36.666Z,88.56
2023-01-22T15:20:05.329Z,88.58
2023-01-22T15:22:33.240Z,88.60
2023-01-22T15:25:00.989Z,88.61
2023-01-22T15:27:28.697Z,88.62
2023-01-22T15:29:56.465Z,88.63
2023-01-22T15:32:24.264Z,88.64
2023-01-22T15:34:52.062Z,88.67
2023-01-22T15:37:19.805Z,88.67
2023-01-22T15:39:47.592Z,88.68
2023-01-22T15:42:15.434Z,88.71
2023-01-22T15:44:43.503Z,88.74
2023-01-22T15:47:11.340Z,88.75
2023-01-22T15:49:39.260Z,88.74
2023-01-22T15:52:07.177Z,88.73
2023-01-22T15:54:34.881Z,88.81
2023-01-22T15:57:02.637Z,88.85
2023-01-22T15:59:30.330Z,88.87
2023-01-22T16:01:58.007Z,88.79
2023-01-22T16:04:26.229Z,88.75
2023-01-22T16:06:53.932Z,88.75
2023-01-22T16:09:21.581Z,88.76
2023-01-22T16:11:50.149Z,88.77
2023-01-22T16:14:19.325Z,88.76
2023-01-22T16:16:47.052Z,88.75
2023-01-22T16:19:14.823Z,88.75
2023-01-22T16:21:45.131Z,88.77
2023-01-22T16:24:12.857Z,88.81
2023-01-22T16:26:40.570Z,88.81
2023-01-22T16:29:08.347Z,88.83
2023-01-22T16:31:37.148Z,88.86
2023-01-22T16:34:17.124Z,88.89
2023-01-22T16:36:45.649Z,88.91
2023-01-22T16:39:21.665Z,88.94
2023-01-22T16:41:50.237Z,88.98
2023-01-22T16:44:20.462Z,89.00
2023-01-22T16:46:52.294Z,89.03
2023-01-22T16:49:22.975Z,89.05
2023-01-22T16:51:53.698Z,89.08
2023-01-22T16:54:28.343Z,89.13
2023-01-22T16:56:58.421Z,89.15
2023-01-22T16:59:27.191Z,89.20
2023-01-22T17:01:57.483Z,89.29
2023-01-22T17:04:25.778Z,89.35
2023-01-22T17:06:56.185Z,89.43
2023-01-22T17:09:32.360Z,89.47
2023-01-22T17:12:02.556Z,89.47
2023-01-22T17:14:35.155Z,89.46
2023-01-22T17:17:05.355Z,89.48
2023-01-22T17:19:33.421Z,89.52
2023-01-22T17:22:01.825Z,89.54
2023-01-22T17:24:31.307Z,89.53
2023-01-22T17:27:02.248Z,89.56
2023-01-22T17:29:32.003Z,89.61
2023-01-22T17:31:59.669Z,89.65
2023-01-22T17:34:27.761Z,89.73
2023-01-22T17:36:56.346Z,89.74
2023-01-22T17:39:24.296Z,89.84
2023-01-22T17:41:52.097Z,89.91
2023-01-22T17:44:19.782Z,89.95
2023-01-22T17:46:49.318Z,89.96
2023-01-22T17:49:17.055Z,90.05
2023-01-22T17:51:44.861Z,90.10
2023-01-22T17:54:12.735Z,90.14
2023-01-22T17:56:43.174Z,90.17
2023-01-22T17:59:12.340Z,90.17
2023-01-22T18:01:41.118Z,90.17
2023-01-22T18:04:10.686Z,90.20
2023-01-22T18:06:41.503Z,90.23
2023-01-22T18:09:11.226Z,90.22
2023-01-22T18:11:39.542Z,90.23
2023-01-22T18:14:17.558Z,90.23
2023-01-22T18:16:46.020Z,90.23
2023-01-22T18:19:14.556Z,90.25
2023-01-22T18:21:42.198Z,90.22
2023-01-22T18:24:12.639Z,90.25
2023-01-22T18:26:40.841Z,90.23
2023-01-22T18:29:09.982Z,90.22
2023-01-22T18:31:38.631Z,90.19
2023-01-22T18:34:07.375Z,90.19
2023-01-22T18:36:39.639Z,90.23
2023-01-22T18:39:13.079Z,90.25
2023-01-22T18:41:41.665Z,90.25
2023-01-22T18:44:11.310Z,90.28
2023-01-22T18:46:41.298Z,90.33
2023-01-22T18:49:16.200Z,90.32
2023-01-22T18:51:45.684Z,90.31
2023-01-22T18:54:13.590Z,90.30
2023-01-22T18:56:42.262Z,90.32
2023-01-22T18:59:12.952Z,90.31
2023-01-22T19:01:41.233Z,90.33
2023-01-22T19:04:10.201Z,90.39
2023-01-22T19:06:38.740Z,90.41
2023-01-22T19:09:14.184Z,90.38
2023-01-22T19:11:43.846Z,90.34
2023-01-22T19:14:14.928Z,90.35
2023-01-22T19:16:48.232Z,90.37
2023-01-22T19:19:17.167Z,90.60
2023-01-22T19:21:49.119Z,90.53
2023-01-22T19:24:19.509Z,90.49
2023-01-22T19:26:47.493Z,90.50
2023-01-22T19:29:17.582Z,90.51
2023-01-22T19:31:48.013Z,90.47
2023-01-22T19:34:23.335Z,90.49
2023-01-22T19:36:53.973Z,90.56
2023-01-22T19:39:23.248Z,90.67
2023-01-22T19:41:51.381Z,90.75
2023-01-22T19:44:19.150Z,90.77
2023-01-22T19:46:46.970Z,90.81
2023-01-22T19:49:15.017Z,90.81
2023-01-22T19:51:43.076Z,90.78
2023-01-22T19:54:11.687Z,90.76
2023-01-22T19:56:41.576Z,90.75
2023-01-22T20:07:59.090Z,90.77
2023-01-22T20:10:26.888Z,90.80
2023-01-22T20:12:54.594Z,90.81
2023-01-22T20:15:22.765Z,90.84
2023-01-22T20:17:51.325Z,90.83
2023-01-22T20:20:19.265Z,90.85
2023-01-22T20:22:46.992Z,90.86
2023-01-22T20:25:15.589Z,90.84
2023-01-22T20:27:43.351Z,90.83
2023-01-22T20:30:11.802Z,90.82
2023-01-22T20:32:39.542Z,90.84
2023-01-22T20:35:07.938Z,90.84
2023-01-22T20:37:35.867Z,90.87
2023-01-22T20:40:04.353Z,90.88
2023-01-22T20:42:32.057Z,90.90
2023-01-22T20:44:59.774Z,90.92
2023-01-22T20:47:27.601Z,90.96
2023-01-22T20:49:55.249Z,91.02
2023-01-22T20:52:22.951Z,91.07
2023-01-22T20:55:01.526Z,91.09
2023-01-22T20:57:30.814Z,91.10
2023-01-22T20:59:58.585Z,91.08
2023-01-22T21:02:26.555Z,91.08
2023-01-22T21:04:56.567Z,91.10
2023-01-22T21:07:24.338Z,91.05
2023-01-22T21:09:52.221Z,90.99
2023-01-22T21:12:20.037Z,90.98
2023-01-22T21:14:47.789Z,90.96
2023-01-22T21:17:18.803Z,90.96
2023-01-22T21:19:46.931Z,90.98
2023-01-22T21:22:14.672Z,90.97
2023-01-22T21:24:42.447Z,90.98
2023-01-22T21:27:10.253Z,91.01
2023-01-22T21:29:38.288Z,91.03
2023-01-22T21:32:06.024Z,91.07
2023-01-22T21:34:36.267Z,91.09
2023-01-22T21:37:04.153Z,91.08
2023-01-22T21:39:32.104Z,91.04
2023-01-22T21:42:19.551Z,91.06
2023-01-22T21:45:06.216Z,91.08
2023-01-22T21:47:33.996Z,91.09
2023-01-22T21:50:01.724Z,91.13
2023-01-22T21:52:29.421Z,91.13
2023-01-22T21:54:57.201Z,91.11
2023-01-22T21:57:25.623Z,91.10
2023-01-22T21:59:53.336Z,91.12
2023-01-22T22:02:22.291Z,91.13
2023-01-22T22:04:50.340Z,91.15
2023-01-22T22:07:18.303Z,91.19
2023-01-22T22:09:46.264Z,91.20
2023-01-22T22:12:14.178Z,91.22
2023-01-22T22:14:41.916Z,91.24
2023-01-22T22:17:09.674Z,91.25
2023-01-22T22:19:37.483Z,91.28
2023-01-22T22:22:05.217Z,91.32
2023-01-22T22:24:33.067Z,91.34
2023-01-22T22:27:00.754Z,91.38
2023-01-22T22:29:28.845Z,91.43
2023-01-22T22:31:56.570Z,91.41
2023-01-22T22:34:24.349Z,91.45
2023-01-22T22:36:52.088Z,91.45
2023-01-22T22:39:19.784Z,91.47
2023-01-22T22:41:47.528Z,91.53
2023-01-22T22:44:16.936Z,91.52
2023-01-22T22:46:44.636Z,91.56
2023-01-22T22:49:13.493Z,91.60
2023-01-22T22:51:42.893Z,91.62
2023-01-22T22:54:15.463Z,91.66
2023-01-22T22:56:48.284Z,91.69
2023-01-22T22:59:18.582Z,91.67
2023-01-22T23:01:47.594Z,91.64
2023-01-22T23:04:15.956Z,91.75
2023-01-22T23:06:45.209Z,91.88
2023-01-22T23:09:15.950Z,91.95
2023-01-22T23:11:44.164Z,91.96
2023-01-22T23:14:12.598Z,91.98
2023-01-22T23:16:42.651Z,92.01
2023-01-22T23:19:16.957Z,92.01
2023-01-22T23:21:44.841Z,92.04
2023-01-22T23:24:14.534Z,92.07
2023-01-22T23:26:43.965Z,92.06
2023-01-22T23:29:17.057Z,92.04
2023-01-22T23:31:45.081Z,92.01
2023-01-22T23:34:16.510Z,92.02
2023-01-22T23:36:45.883Z,92.03
2023-01-22T23:39:17.148Z,92.03
2023-01-22T23:41:45.309Z,91.98
2023-01-22T23:44:13.179Z,91.96
2023-01-22T23:46:42.731Z,91.95
2023-01-22T23:49:10.633Z,91.94
2023-01-22T23:51:41.151Z,91.90
2023-01-22T23:54:09.405Z,91.88
2023-01-22T23:56:37.671Z,91.90
2023-01-22T23:59:05.857Z,91.96
